sensor_id;sensor_type;location;lat;lon;timestamp;temperature;humidity
37408;DHT22;24866;50.248;8.252;2022-11-15T00:01:06;9.90;99.90
37408;DHT22;24866;50.248;8.252;2022-11-15T00:03:36;9.70;99.90
37408;DHT22;24866;50.248;8.252;2022-11-15T00:06:06;9.60;99.90
37408;DHT22;24866;50.248;8.252;2022-11-15T00:08:37;9.50;99.90
37408;DHT22;24866;50.248;8.252;2022-11-15T00:11:10;9.40;99.90
37408;DHT22;24866;50.248;8.252;2022-11-15T00:13:40;9.30;99.90
37408;DHT22;24866;50.248;8.252;2022-11-15T00:16:10;9.30;99.90
37408;DHT22;24866;50.248;8.252;2022-11-15T00:18:40;9.20;99.90
37408;DHT22;24866;50.248;8.252;2022-11-15T00:21:12;9.10;99.90
37408;DHT22;24866;50.248;8.252;2022-11-15T00:23:44;9.10;99.90
37408;DHT22;24866;50.248;8.252;2022-11-15T00:26:15;9.00;99.90
37408;DHT22;24866;50.248;8.252;2022-11-15T00:28:45;9.00;99.90
37408;DHT22;24866;50.248;8.252;2022-11-15T00:31:15;8.90;99.90
37408;DHT22;24866;50.248;8.252;2022-11-15T00:33:45;9.00;99.90
37408;DHT22;24866;50.248;8.252;2022-11-15T00:36:15;9.00;99.90
37408;DHT22;24866;50.248;8.252;2022-11-15T00:38:46;9.00;99.90
37408;DHT22;24866;50.248;8.252;2022-11-15T00:41:16;9.00;99.90
37408;DHT22;24866;50.248;8.252;2022-11-15T00:43:46;9.00;99.90
37408;DHT22;24866;50.248;8.252;2022-11-15T00:46:16;9.00;99.90
37408;DHT22;24866;50.248;8.252;2022-11-15T00:48:46;8.90;99.90
37408;DHT22;24866;50.248;8.252;2022-11-15T00:51:16;8.90;99.90
37408;DHT22;24866;50.248;8.252;2022-11-15T00:53:47;8.90;99.90
37408;DHT22;24866;50.248;8.252;2022-11-15T00:56:17;8.90;99.90
37408;DHT22;24866;50.248;8.252;2022-11-15T00:58:47;8.90;99.90
37408;DHT22;24866;50.248;8.252;2022-11-15T01:01:17;8.80;99.90
37408;DHT22;24866;50.248;8.252;2022-11-15T01:03:47;8.80;99.90
37408;DHT22;24866;50.248;8.252;2022-11-15T01:06:17;8.80;99.90
37408;DHT22;24866;50.248;8.252;2022-11-15T01:08:48;8.80;99.90
37408;DHT22;24866;50.248;8.252;2022-11-15T01:11:18;8.90;99.90
37408;DHT22;24866;50.248;8.252;2022-11-15T01:13:47;8.90;99.90
37408;DHT22;24866;50.248;8.252;2022-11-15T01:16:18;9.00;99.90
37408;DHT22;24866;50.248;8.252;2022-11-15T01:18:48;9.00;99.90
37408;DHT22;24866;50.248;8.252;2022-11-15T01:21:19;9.00;99.90
37408;DHT22;24866;50.248;8.252;2022-11-15T01:23:54;9.00;99.90
37408;DHT22;24866;50.248;8.252;2022-11-15T01:26:24;9.00;99.90
37408;DHT22;24866;50.248;8.252;2022-11-15T01:28:54;9.00;99.90
37408;DHT22;24866;50.248;8.252;2022-11-15T01:31:24;9.00;99.90
37408;DHT22;24866;50.248;8.252;2022-11-15T01:33:53;9.10;99.90
37408;DHT22;24866;50.248;8.252;2022-11-15T01:36:23;9.20;99.90
37408;DHT22;24866;50.248;8.252;2022-11-15T01:38:56;9.20;99.90
37408;DHT22;24866;50.248;8.252;2022-11-15T01:41:29;9.20;99.90
37408;DHT22;24866;50.248;8.252;2022-11-15T01:46:45;9.30;99.90
37408;DHT22;24866;50.248;8.252;2022-11-15T01:49:18;9.30;99.90
37408;DHT22;24866;50.248;8.252;2022-11-15T01:51:49;9.40;99.90
37408;DHT22;24866;50.248;8.252;2022-11-15T01:54:21;9.40;99.90
37408;DHT22;24866;50.248;8.252;2022-11-15T01:56:57;9.40;99.90
37408;DHT22;24866;50.248;8.252;2022-11-15T01:59:29;9.40;99.90
37408;DHT22;24866;50.248;8.252;2022-11-15T02:02:00;9.40;99.90
37408;DHT22;24866;50.248;8.252;2022-11-15T02:04:32;9.50;99.90
37408;DHT22;24866;50.248;8.252;2022-11-15T02:07:03;9.50;99.90
37408;DHT22;24866;50.248;8.252;2022-11-15T02:09:37;9.50;99.90
37408;DHT22;24866;50.248;8.252;2022-11-15T02:12:08;9.40;99.90
37408;DHT22;24866;50.248;8.252;2022-11-15T02:14:39;9.40;99.90
37408;DHT22;24866;50.248;8.252;2022-11-15T02:17:24;9.40;99.90
37408;DHT22;24866;50.248;8.252;2022-11-15T02:20:24;9.40;99.90
37408;DHT22;24866;50.248;8.252;2022-11-15T02:26:15;9.50;99.90
37408;DHT22;24866;50.248;8.252;2022-11-15T02:28:53;9.60;99.90
37408;DHT22;24866;50.248;8.252;2022-11-15T02:31:30;9.60;99.90
37408;DHT22;24866;50.248;8.252;2022-11-15T02:34:07;9.60;99.90
37408;DHT22;24866;50.248;8.252;2022-11-15T02:36:42;9.60;99.90
37408;DHT22;24866;50.248;8.252;2022-11-15T02:39:20;9.60;99.90
37408;DHT22;24866;50.248;8.252;2022-11-15T02:41:55;9.60;99.90
37408;DHT22;24866;50.248;8.252;2022-11-15T02:44:32;9.60;99.90
37408;DHT22;24866;50.248;8.252;2022-11-15T02:47:05;9.50;99.90
37408;DHT22;24866;50.248;8.252;2022-11-15T02:49:45;9.50;99.90
37408;DHT22;24866;50.248;8.252;2022-11-15T02:52:16;9.50;99.90
37408;DHT22;24866;50.248;8.252;2022-11-15T02:54:53;9.50;99.90
37408;DHT22;24866;50.248;8.252;2022-11-15T02:57:35;9.50;99.90
37408;DHT22;24866;50.248;8.252;2022-11-15T03:00:09;9.50;99.90
37408;DHT22;24866;50.248;8.252;2022-11-15T03:05:52;9.50;99.90
37408;DHT22;24866;50.248;8.252;2022-11-15T03:08:29;9.60;99.90
37408;DHT22;24866;50.248;8.252;2022-11-15T03:11:03;9.60;99.90
37408;DHT22;24866;50.248;8.252;2022-11-15T03:13:42;9.60;99.90
37408;DHT22;24866;50.248;8.252;2022-11-15T03:16:17;9.60;99.90
37408;DHT22;24866;50.248;8.252;2022-11-15T03:18:54;9.60;99.90
37408;DHT22;24866;50.248;8.252;2022-11-15T03:21:28;9.70;99.90
37408;DHT22;24866;50.248;8.252;2022-11-15T03:24:03;9.70;99.90
37408;DHT22;24866;50.248;8.252;2022-11-15T03:26:36;9.70;99.90
37408;DHT22;24866;50.248;8.252;2022-11-15T03:29:11;9.60;99.90
37408;DHT22;24866;50.248;8.252;2022-11-15T03:31:45;9.60;99.90
37408;DHT22;24866;50.248;8.252;2022-11-15T03:34:24;9.60;99.90
37408;DHT22;24866;50.248;8.252;2022-11-15T03:36:55;9.60;99.90
37408;DHT22;24866;50.248;8.252;2022-11-15T03:39:26;9.60;99.90
37408;DHT22;24866;50.248;8.252;2022-11-15T03:42:04;9.60;99.90
37408;DHT22;24866;50.248;8.252;2022-11-15T03:44:41;9.60;99.90
37408;DHT22;24866;50.248;8.252;2022-11-15T03:47:16;9.50;99.90
37408;DHT22;24866;50.248;8.252;2022-11-15T03:49:52;9.60;99.90
37408;DHT22;24866;50.248;8.252;2022-11-15T03:52:23;9.50;99.90
37408;DHT22;24866;50.248;8.252;2022-11-15T03:54:55;9.60;99.90
37408;DHT22;24866;50.248;8.252;2022-11-15T03:57:25;9.50;99.90
37408;DHT22;24866;50.248;8.252;2022-11-15T03:59:55;9.50;99.90
37408;DHT22;24866;50.248;8.252;2022-11-15T04:02:25;9.40;99.90
37408;DHT22;24866;50.248;8.252;2022-11-15T04:04:56;9.40;99.90
37408;DHT22;24866;50.248;8.252;2022-11-15T04:07:26;9.40;99.90
37408;DHT22;24866;50.248;8.252;2022-11-15T04:09:56;9.40;99.90
37408;DHT22;24866;50.248;8.252;2022-11-15T04:12:36;9.40;99.90
37408;DHT22;24866;50.248;8.252;2022-11-15T04:15:08;9.40;99.90
37408;DHT22;24866;50.248;8.252;2022-11-15T04:17:40;9.30;99.90
37408;DHT22;24866;50.248;8.252;2022-11-15T04:20:17;9.30;99.90
37408;DHT22;24866;50.248;8.252;2022-11-15T04:23:07;9.30;99.90
37408;DHT22;24866;50.248;8.252;2022-11-15T04:25:57;9.20;99.90
37408;DHT22;24866;50.248;8.252;2022-11-15T04:28:28;9.20;99.90
37408;DHT22;24866;50.248;8.252;2022-11-15T04:30:57;9.10;99.90
37408;DHT22;24866;50.248;8.252;2022-11-15T04:33:27;9.10;99.90
37408;DHT22;24866;50.248;8.252;2022-11-15T04:35:58;9.00;99.90
37408;DHT22;24866;50.248;8.252;2022-11-15T04:38:46;8.90;99.90
37408;DHT22;24866;50.248;8.252;2022-11-15T04:41:16;8.90;99.90
37408;DHT22;24866;50.248;8.252;2022-11-15T04:43:45;8.90;99.90
37408;DHT22;24866;50.248;8.252;2022-11-15T04:46:15;8.90;99.90
37408;DHT22;24866;50.248;8.252;2022-11-15T04:48:45;8.90;99.90
37408;DHT22;24866;50.248;8.252;2022-11-15T04:51:17;8.80;99.90
37408;DHT22;24866;50.248;8.252;2022-11-15T04:53:48;8.80;99.90
37408;DHT22;24866;50.248;8.252;2022-11-15T04:56:18;8.80;99.90
37408;DHT22;24866;50.248;8.252;2022-11-15T04:58:48;8.70;99.90
37408;DHT22;24866;50.248;8.252;2022-11-15T05:01:18;8.70;99.90
37408;DHT22;24866;50.248;8.252;2022-11-15T05:03:48;8.80;99.90
37408;DHT22;24866;50.248;8.252;2022-11-15T05:06:37;8.80;99.90
37408;DHT22;24866;50.248;8.252;2022-11-15T05:09:07;8.80;99.90
37408;DHT22;24866;50.248;8.252;2022-11-15T05:11:37;8.80;99.90
37408;DHT22;24866;50.248;8.252;2022-11-15T05:14:06;8.80;99.90
37408;DHT22;24866;50.248;8.252;2022-11-15T05:16:37;8.70;99.90
37408;DHT22;24866;50.248;8.252;2022-11-15T05:19:07;8.80;99.90
37408;DHT22;24866;50.248;8.252;2022-11-15T05:21:38;8.70;99.90
37408;DHT22;24866;50.248;8.252;2022-11-15T05:24:09;8.70;99.90
37408;DHT22;24866;50.248;8.252;2022-11-15T05:26:39;8.70;99.90
37408;DHT22;24866;50.248;8.252;2022-11-15T05:29:09;8.70;99.90
37408;DHT22;24866;50.248;8.252;2022-11-15T05:31:41;8.70;99.90
37408;DHT22;24866;50.248;8.252;2022-11-15T05:34:11;8.70;99.90
37408;DHT22;24866;50.248;8.252;2022-11-15T05:36:43;8.60;99.90
37408;DHT22;24866;50.248;8.252;2022-11-15T05:39:14;8.70;99.90
37408;DHT22;24866;50.248;8.252;2022-11-15T05:41:46;8.70;99.90
37408;DHT22;24866;50.248;8.252;2022-11-15T05:44:17;8.70;99.90
37408;DHT22;24866;50.248;8.252;2022-11-15T05:46:49;8.80;99.90
37408;DHT22;24866;50.248;8.252;2022-11-15T05:49:22;8.90;99.90
37408;DHT22;24866;50.248;8.252;2022-11-15T05:51:54;8.80;99.90
37408;DHT22;24866;50.248;8.252;2022-11-15T05:54:25;8.70;99.90
37408;DHT22;24866;50.248;8.252;2022-11-15T05:56:55;8.70;99.90
37408;DHT22;24866;50.248;8.252;2022-11-15T05:59:25;8.60;99.90
37408;DHT22;24866;50.248;8.252;2022-11-15T06:01:57;8.60;99.90
37408;DHT22;24866;50.248;8.252;2022-11-15T06:04:28;8.60;99.90
37408;DHT22;24866;50.248;8.252;2022-11-15T06:06:59;8.80;99.90
37408;DHT22;24866;50.248;8.252;2022-11-15T06:09:29;8.80;99.90
37408;DHT22;24866;50.248;8.252;2022-11-15T06:11:59;8.80;99.90
37408;DHT22;24866;50.248;8.252;2022-11-15T06:14:29;8.90;99.90
37408;DHT22;24866;50.248;8.252;2022-11-15T06:16:59;8.90;99.90
37408;DHT22;24866;50.248;8.252;2022-11-15T06:19:30;8.90;99.90
37408;DHT22;24866;50.248;8.252;2022-11-15T06:22:02;8.80;99.90
37408;DHT22;24866;50.248;8.252;2022-11-15T06:24:32;8.80;99.90
37408;DHT22;24866;50.248;8.252;2022-11-15T06:27:02;8.80;99.90
37408;DHT22;24866;50.248;8.252;2022-11-15T06:29:32;8.80;99.90
37408;DHT22;24866;50.248;8.252;2022-11-15T06:32:02;8.80;99.90
37408;DHT22;24866;50.248;8.252;2022-11-15T06:34:32;8.90;99.90
37408;DHT22;24866;50.248;8.252;2022-11-15T06:37:05;8.90;99.90
37408;DHT22;24866;50.248;8.252;2022-11-15T06:39:35;8.80;99.90
37408;DHT22;24866;50.248;8.252;2022-11-15T06:42:05;8.80;99.90
37408;DHT22;24866;50.248;8.252;2022-11-15T06:44:35;8.80;99.90
37408;DHT22;24866;50.248;8.252;2022-11-15T06:47:05;8.80;99.90
37408;DHT22;24866;50.248;8.252;2022-11-15T06:49:35;8.80;99.90
37408;DHT22;24866;50.248;8.252;2022-11-15T06:52:06;8.80;99.90
37408;DHT22;24866;50.248;8.252;2022-11-15T06:54:36;8.90;99.90
37408;DHT22;24866;50.248;8.252;2022-11-15T06:57:06;8.90;99.90
37408;DHT22;24866;50.248;8.252;2022-11-15T06:59:36;8.90;99.90
37408;DHT22;24866;50.248;8.252;2022-11-15T07:02:10;8.90;99.90
37408;DHT22;24866;50.248;8.252;2022-11-15T07:04:40;8.90;99.90
37408;DHT22;24866;50.248;8.252;2022-11-15T07:07:12;8.90;99.90
37408;DHT22;24866;50.248;8.252;2022-11-15T07:09:42;8.90;99.90
37408;DHT22;24866;50.248;8.252;2022-11-15T07:12:13;8.90;99.90
37408;DHT22;24866;50.248;8.252;2022-11-15T07:14:44;8.80;99.90
37408;DHT22;24866;50.248;8.252;2022-11-15T07:17:14;8.80;99.90
37408;DHT22;24866;50.248;8.252;2022-11-15T07:19:45;8.70;99.90
37408;DHT22;24866;50.248;8.252;2022-11-15T07:22:17;8.70;99.90
37408;DHT22;24866;50.248;8.252;2022-11-15T07:24:47;8.70;99.90
37408;DHT22;24866;50.248;8.252;2022-11-15T07:27:17;8.80;99.90
37408;DHT22;24866;50.248;8.252;2022-11-15T07:29:47;8.80;99.90
37408;DHT22;24866;50.248;8.252;2022-11-15T07:32:18;8.90;99.90
37408;DHT22;24866;50.248;8.252;2022-11-15T07:34:48;8.90;99.90
37408;DHT22;24866;50.248;8.252;2022-11-15T07:37:20;9.00;99.90
37408;DHT22;24866;50.248;8.252;2022-11-15T07:39:50;9.00;99.90
37408;DHT22;24866;50.248;8.252;2022-11-15T07:42:20;9.00;99.90
37408;DHT22;24866;50.248;8.252;2022-11-15T07:45:08;9.10;99.90
37408;DHT22;24866;50.248;8.252;2022-11-15T07:47:39;9.20;99.90
37408;DHT22;24866;50.248;8.252;2022-11-15T07:50:09;9.20;99.90
37408;DHT22;24866;50.248;8.252;2022-11-15T07:52:41;9.20;99.90
37408;DHT22;24866;50.248;8.252;2022-11-15T07:55:11;9.30;99.90
37408;DHT22;24866;50.248;8.252;2022-11-15T07:57:41;9.30;99.90
37408;DHT22;24866;50.248;8.252;2022-11-15T08:00:12;9.40;99.90
37408;DHT22;24866;50.248;8.252;2022-11-15T08:02:43;9.40;99.90
37408;DHT22;24866;50.248;8.252;2022-11-15T08:05:13;9.40;99.90
37408;DHT22;24866;50.248;8.252;2022-11-15T08:07:44;9.40;99.90
37408;DHT22;24866;50.248;8.252;2022-11-15T08:10:14;9.50;99.90
37408;DHT22;24866;50.248;8.252;2022-11-15T08:12:47;9.50;99.90
37408;DHT22;24866;50.248;8.252;2022-11-15T08:15:17;9.50;99.90
37408;DHT22;24866;50.248;8.252;2022-11-15T08:17:47;9.60;99.90
37408;DHT22;24866;50.248;8.252;2022-11-15T08:20:17;9.60;99.90
37408;DHT22;24866;50.248;8.252;2022-11-15T08:22:49;9.60;99.90
37408;DHT22;24866;50.248;8.252;2022-11-15T08:25:19;9.70;99.90
37408;DHT22;24866;50.248;8.252;2022-11-15T08:27:51;9.80;99.90
37408;DHT22;24866;50.248;8.252;2022-11-15T08:30:22;9.80;99.90
37408;DHT22;24866;50.248;8.252;2022-11-15T08:32:53;9.80;99.90
37408;DHT22;24866;50.248;8.252;2022-11-15T08:35:23;9.90;99.90
37408;DHT22;24866;50.248;8.252;2022-11-15T08:37:55;9.90;99.90
37408;DHT22;24866;50.248;8.252;2022-11-15T08:40:28;10.00;99.90
37408;DHT22;24866;50.248;8.252;2022-11-15T08:42:57;10.00;99.90
37408;DHT22;24866;50.248;8.252;2022-11-15T08:45:31;10.10;99.90
37408;DHT22;24866;50.248;8.252;2022-11-15T08:48:01;10.20;99.90
37408;DHT22;24866;50.248;8.252;2022-11-15T08:50:32;10.30;99.90
37408;DHT22;24866;50.248;8.252;2022-11-15T08:53:07;10.30;99.90
37408;DHT22;24866;50.248;8.252;2022-11-15T08:55:39;10.30;99.90
37408;DHT22;24866;50.248;8.252;2022-11-15T08:58:09;10.40;99.90
37408;DHT22;24866;50.248;8.252;2022-11-15T09:00:39;10.40;99.90
37408;DHT22;24866;50.248;8.252;2022-11-15T09:03:09;10.40;99.90
37408;DHT22;24866;50.248;8.252;2022-11-15T09:05:39;10.40;99.90
37408;DHT22;24866;50.248;8.252;2022-11-15T09:08:10;10.50;99.90
37408;DHT22;24866;50.248;8.252;2022-11-15T09:10:41;10.50;99.90
37408;DHT22;24866;50.248;8.252;2022-11-15T09:13:11;10.60;99.90
37408;DHT22;24866;50.248;8.252;2022-11-15T09:15:41;10.60;99.90
37408;DHT22;24866;50.248;8.252;2022-11-15T09:18:11;10.70;99.90
37408;DHT22;24866;50.248;8.252;2022-11-15T09:20:40;10.80;99.90
37408;DHT22;24866;50.248;8.252;2022-11-15T09:23:12;10.90;99.90
37408;DHT22;24866;50.248;8.252;2022-11-15T09:25:42;11.00;99.90
37408;DHT22;24866;50.248;8.252;2022-11-15T09:28:12;11.00;99.90
37408;DHT22;24866;50.248;8.252;2022-11-15T09:30:41;11.10;99.90
37408;DHT22;24866;50.248;8.252;2022-11-15T09:33:12;11.10;99.90
37408;DHT22;24866;50.248;8.252;2022-11-15T09:35:42;11.20;99.90
37408;DHT22;24866;50.248;8.252;2022-11-15T09:38:14;11.20;99.90
37408;DHT22;24866;50.248;8.252;2022-11-15T09:40:44;11.20;99.90
37408;DHT22;24866;50.248;8.252;2022-11-15T09:43:28;11.20;99.90
37408;DHT22;24866;50.248;8.252;2022-11-15T09:46:08;11.20;99.90
37408;DHT22;24866;50.248;8.252;2022-11-15T09:48:51;11.20;99.90
37408;DHT22;24866;50.248;8.252;2022-11-15T09:51:29;11.20;99.90
37408;DHT22;24866;50.248;8.252;2022-11-15T09:54:05;11.30;99.90
37408;DHT22;24866;50.248;8.252;2022-11-15T09:56:41;11.30;99.90
37408;DHT22;24866;50.248;8.252;2022-11-15T10:02:18;11.40;99.90
37408;DHT22;24866;50.248;8.252;2022-11-15T10:04:51;11.40;99.90
37408;DHT22;24866;50.248;8.252;2022-11-15T10:07:27;11.40;99.90
37408;DHT22;24866;50.248;8.252;2022-11-15T10:10:04;11.50;99.90
37408;DHT22;24866;50.248;8.252;2022-11-15T10:12:38;11.50;99.90
37408;DHT22;24866;50.248;8.252;2022-11-15T10:15:13;11.50;99.90
37408;DHT22;24866;50.248;8.252;2022-11-15T10:20:46;11.60;99.90
37408;DHT22;24866;50.248;8.252;2022-11-15T10:23:18;11.60;99.90
37408;DHT22;24866;50.248;8.252;2022-11-15T10:25:52;11.70;99.90
37408;DHT22;24866;50.248;8.252;2022-11-15T10:28:27;11.70;99.90
37408;DHT22;24866;50.248;8.252;2022-11-15T10:30:58;11.70;99.90
37408;DHT22;24866;50.248;8.252;2022-11-15T10:33:32;11.80;99.90
37408;DHT22;24866;50.248;8.252;2022-11-15T10:36:18;11.80;99.90
37408;DHT22;24866;50.248;8.252;2022-11-15T10:38:54;11.80;99.90
37408;DHT22;24866;50.248;8.252;2022-11-15T10:41:35;11.90;99.90
37408;DHT22;24866;50.248;8.252;2022-11-15T10:44:18;12.00;99.90
37408;DHT22;24866;50.248;8.252;2022-11-15T10:47:04;12.10;99.90
37408;DHT22;24866;50.248;8.252;2022-11-15T10:49:35;12.10;99.90
37408;DHT22;24866;50.248;8.252;2022-11-15T10:52:15;12.30;99.90
37408;DHT22;24866;50.248;8.252;2022-11-15T10:54:49;12.50;99.90
37408;DHT22;24866;50.248;8.252;2022-11-15T10:57:23;12.70;99.90
37408;DHT22;24866;50.248;8.252;2022-11-15T10:59:55;12.80;99.90
37408;DHT22;24866;50.248;8.252;2022-11-15T11:02:32;12.70;99.90
37408;DHT22;24866;50.248;8.252;2022-11-15T11:05:06;12.70;99.90
37408;DHT22;24866;50.248;8.252;2022-11-15T11:07:36;12.60;99.90
37408;DHT22;24866;50.248;8.252;2022-11-15T11:10:19;12.60;99.90
37408;DHT22;24866;50.248;8.252;2022-11-15T11:12:51;12.90;99.90
37408;DHT22;24866;50.248;8.252;2022-11-15T11:15:23;12.90;99.90
37408;DHT22;24866;50.248;8.252;2022-11-15T11:18:02;12.90;99.90
37408;DHT22;24866;50.248;8.252;2022-11-15T11:20:39;12.70;99.90
37408;DHT22;24866;50.248;8.252;2022-11-15T11:23:28;12.70;99.90
37408;DHT22;24866;50.248;8.252;2022-11-15T11:29:11;12.50;99.90
37408;DHT22;24866;50.248;8.252;2022-11-15T11:31:51;12.60;99.90
37408;DHT22;24866;50.248;8.252;2022-11-15T11:34:34;12.40;99.90
37408;DHT22;24866;50.248;8.252;2022-11-15T11:37:12;12.40;99.90
37408;DHT22;24866;50.248;8.252;2022-11-15T11:39:54;12.40;99.90
37408;DHT22;24866;50.248;8.252;2022-11-15T11:42:32;12.30;99.90
37408;DHT22;24866;50.248;8.252;2022-11-15T11:45:23;12.20;99.90
37408;DHT22;24866;50.248;8.252;2022-11-15T11:48:01;12.20;99.90
37408;DHT22;24866;50.248;8.252;2022-11-15T11:50:33;12.10;99.90
37408;DHT22;24866;50.248;8.252;2022-11-15T11:53:12;12.00;99.90
37408;DHT22;24866;50.248;8.252;2022-11-15T11:55:45;12.00;99.90
37408;DHT22;24866;50.248;8.252;2022-11-15T11:58:19;12.00;99.90
37408;DHT22;24866;50.248;8.252;2022-11-15T12:00:53;12.00;99.90
37408;DHT22;24866;50.248;8.252;2022-11-15T12:03:28;11.90;99.90
37408;DHT22;24866;50.248;8.252;2022-11-15T12:06:02;11.90;99.90
37408;DHT22;24866;50.248;8.252;2022-11-15T12:08:41;11.90;99.90
37408;DHT22;24866;50.248;8.252;2022-11-15T12:11:16;11.90;99.90
37408;DHT22;24866;50.248;8.252;2022-11-15T12:13:50;11.90;99.90
37408;DHT22;24866;50.248;8.252;2022-11-15T12:16:27;11.90;99.90
37408;DHT22;24866;50.248;8.252;2022-11-15T12:19:00;11.90;99.90
37408;DHT22;24866;50.248;8.252;2022-11-15T12:21:36;11.90;99.90
37408;DHT22;24866;50.248;8.252;2022-11-15T12:24:14;11.80;99.90
37408;DHT22;24866;50.248;8.252;2022-11-15T12:26:50;11.80;99.90
37408;DHT22;24866;50.248;8.252;2022-11-15T12:29:29;11.80;99.90
37408;DHT22;24866;50.248;8.252;2022-11-15T12:32:03;11.80;99.90
37408;DHT22;24866;50.248;8.252;2022-11-15T12:34:43;11.70;99.90
37408;DHT22;24866;50.248;8.252;2022-11-15T12:37:46;11.70;99.90
37408;DHT22;24866;50.248;8.252;2022-11-15T12:40:26;11.70;99.90
37408;DHT22;24866;50.248;8.252;2022-11-15T12:45:45;11.70;99.90
37408;DHT22;24866;50.248;8.252;2022-11-15T12:54:59;11.70;99.90
37408;DHT22;24866;50.248;8.252;2022-11-15T12:57:38;11.70;99.90
37408;DHT22;24866;50.248;8.252;2022-11-15T13:00:42;11.60;99.90
37408;DHT22;24866;50.248;8.252;2022-11-15T13:03:16;11.70;99.90
37408;DHT22;24866;50.248;8.252;2022-11-15T13:06:06;11.70;99.90
37408;DHT22;24866;50.248;8.252;2022-11-15T13:08:46;11.70;99.90
37408;DHT22;24866;50.248;8.252;2022-11-15T13:11:47;11.70;99.90
37408;DHT22;24866;50.248;8.252;2022-11-15T13:14:46;11.60;99.90
37408;DHT22;24866;50.248;8.252;2022-11-15T13:17:34;11.60;99.90
37408;DHT22;24866;50.248;8.252;2022-11-15T13:20:26;11.60;99.90
37408;DHT22;24866;50.248;8.252;2022-11-15T13:23:08;11.60;99.90
37408;DHT22;24866;50.248;8.252;2022-11-15T13:28:36;11.70;99.90
37408;DHT22;24866;50.248;8.252;2022-11-15T13:31:34;11.70;99.90
37408;DHT22;24866;50.248;8.252;2022-11-15T13:34:24;11.70;99.90
37408;DHT22;24866;50.248;8.252;2022-11-15T13:36:54;11.70;99.90
37408;DHT22;24866;50.248;8.252;2022-11-15T13:39:28;11.80;99.90
37408;DHT22;24866;50.248;8.252;2022-11-15T13:41:58;11.70;99.90
37408;DHT22;24866;50.248;8.252;2022-11-15T13:44:31;11.70;99.90
37408;DHT22;24866;50.248;8.252;2022-11-15T13:47:02;11.70;99.90
37408;DHT22;24866;50.248;8.252;2022-11-15T13:49:33;11.70;99.90
37408;DHT22;24866;50.248;8.252;2022-11-15T13:52:05;11.70;99.90
37408;DHT22;24866;50.248;8.252;2022-11-15T13:54:38;11.70;99.90
37408;DHT22;24866;50.248;8.252;2022-11-15T13:57:12;11.70;99.90
37408;DHT22;24866;50.248;8.252;2022-11-15T13:59:47;11.70;99.90
37408;DHT22;24866;50.248;8.252;2022-11-15T14:02:20;11.60;99.90
37408;DHT22;24866;50.248;8.252;2022-11-15T14:04:53;11.60;99.90
37408;DHT22;24866;50.248;8.252;2022-11-15T14:07:26;11.60;99.90
37408;DHT22;24866;50.248;8.252;2022-11-15T14:09:56;11.40;99.90
37408;DHT22;24866;50.248;8.252;2022-11-15T14:12:29;11.40;99.90
37408;DHT22;24866;50.248;8.252;2022-11-15T14:15:24;11.40;99.90
37408;DHT22;24866;50.248;8.252;2022-11-15T14:17:55;11.40;99.90
37408;DHT22;24866;50.248;8.252;2022-11-15T14:20:29;11.40;99.90
37408;DHT22;24866;50.248;8.252;2022-11-15T14:23:01;11.40;99.90
37408;DHT22;24866;50.248;8.252;2022-11-15T14:25:32;11.40;99.90
37408;DHT22;24866;50.248;8.252;2022-11-15T14:28:28;11.30;99.90
37408;DHT22;24866;50.248;8.252;2022-11-15T14:31:01;11.30;99.90
37408;DHT22;24866;50.248;8.252;2022-11-15T14:33:33;11.30;99.90
37408;DHT22;24866;50.248;8.252;2022-11-15T14:36:06;11.30;99.90
37408;DHT22;24866;50.248;8.252;2022-11-15T14:38:36;11.30;99.90
37408;DHT22;24866;50.248;8.252;2022-11-15T14:41:16;11.30;99.90
37408;DHT22;24866;50.248;8.252;2022-11-15T14:43:47;11.30;99.90
37408;DHT22;24866;50.248;8.252;2022-11-15T14:46:19;11.30;99.90
37408;DHT22;24866;50.248;8.252;2022-11-15T14:48:49;11.30;99.90
37408;DHT22;24866;50.248;8.252;2022-11-15T14:51:19;11.40;99.90
37408;DHT22;24866;50.248;8.252;2022-11-15T14:53:49;11.30;99.90
37408;DHT22;24866;50.248;8.252;2022-11-15T14:56:19;11.40;99.90
37408;DHT22;24866;50.248;8.252;2022-11-15T14:58:49;11.40;99.90
37408;DHT22;24866;50.248;8.252;2022-11-15T15:01:23;11.30;99.90
37408;DHT22;24866;50.248;8.252;2022-11-15T15:03:54;11.40;99.90
37408;DHT22;24866;50.248;8.252;2022-11-15T15:06:25;11.40;99.90
37408;DHT22;24866;50.248;8.252;2022-11-15T15:08:56;11.40;99.90
37408;DHT22;24866;50.248;8.252;2022-11-15T15:11:27;11.30;99.90
37408;DHT22;24866;50.248;8.252;2022-11-15T15:13:58;11.30;99.90
37408;DHT22;24866;50.248;8.252;2022-11-15T15:16:31;11.40;99.90
37408;DHT22;24866;50.248;8.252;2022-11-15T15:19:00;11.40;99.90
37408;DHT22;24866;50.248;8.252;2022-11-15T15:21:31;11.40;99.90
37408;DHT22;24866;50.248;8.252;2022-11-15T15:24:01;11.40;99.90
37408;DHT22;24866;50.248;8.252;2022-11-15T15:26:31;11.50;99.90
37408;DHT22;24866;50.248;8.252;2022-11-15T15:29:03;11.50;99.90
37408;DHT22;24866;50.248;8.252;2022-11-15T15:31:35;11.50;99.90
37408;DHT22;24866;50.248;8.252;2022-11-15T15:34:05;11.50;99.90
37408;DHT22;24866;50.248;8.252;2022-11-15T15:36:35;11.50;99.90
37408;DHT22;24866;50.248;8.252;2022-11-15T15:39:04;11.50;99.90
37408;DHT22;24866;50.248;8.252;2022-11-15T15:41:34;11.50;99.90
37408;DHT22;24866;50.248;8.252;2022-11-15T15:44:04;11.50;99.90
37408;DHT22;24866;50.248;8.252;2022-11-15T15:46:36;11.50;99.90
37408;DHT22;24866;50.248;8.252;2022-11-15T15:49:08;11.50;99.90
37408;DHT22;24866;50.248;8.252;2022-11-15T15:51:39;11.50;99.90
37408;DHT22;24866;50.248;8.252;2022-11-15T15:54:09;11.50;99.90
37408;DHT22;24866;50.248;8.252;2022-11-15T15:56:40;11.50;99.90
37408;DHT22;24866;50.248;8.252;2022-11-15T15:59:10;11.50;99.90
37408;DHT22;24866;50.248;8.252;2022-11-15T16:01:42;11.50;99.90
37408;DHT22;24866;50.248;8.252;2022-11-15T16:04:12;11.50;99.90
37408;DHT22;24866;50.248;8.252;2022-11-15T16:06:42;11.50;99.90
37408;DHT22;24866;50.248;8.252;2022-11-15T16:09:15;11.50;99.90
37408;DHT22;24866;50.248;8.252;2022-11-15T16:11:46;11.50;99.90
37408;DHT22;24866;50.248;8.252;2022-11-15T16:14:18;11.40;99.90
37408;DHT22;24866;50.248;8.252;2022-11-15T16:16:51;11.40;99.90
37408;DHT22;24866;50.248;8.252;2022-11-15T16:19:21;11.40;99.90
37408;DHT22;24866;50.248;8.252;2022-11-15T16:21:51;11.30;99.90
37408;DHT22;24866;50.248;8.252;2022-11-15T16:24:21;11.40;99.90
37408;DHT22;24866;50.248;8.252;2022-11-15T16:26:52;11.30;99.90
37408;DHT22;24866;50.248;8.252;2022-11-15T16:29:22;11.30;99.90
37408;DHT22;24866;50.248;8.252;2022-11-15T16:31:53;11.30;99.90
37408;DHT22;24866;50.248;8.252;2022-11-15T16:34:23;11.30;99.90
37408;DHT22;24866;50.248;8.252;2022-11-15T16:36:54;11.30;99.90
37408;DHT22;24866;50.248;8.252;2022-11-15T16:39:24;11.30;99.90
37408;DHT22;24866;50.248;8.252;2022-11-15T16:41:56;11.30;99.90
37408;DHT22;24866;50.248;8.252;2022-11-15T16:44:26;11.30;99.90
37408;DHT22;24866;50.248;8.252;2022-11-15T16:46:59;11.30;99.90
37408;DHT22;24866;50.248;8.252;2022-11-15T16:49:29;11.30;99.90